createdAt,value
2024-04-25T00:00:19.459Z,1005.200757
2024-04-25T00:05:19.208Z,1005.098654
2024-04-25T00:10:19.196Z,1004.989166
2024-04-25T00:15:19.475Z,1004.944552
2024-04-25T00:20:19.035Z,1004.961925
2024-04-25T00:25:19.097Z,1004.922347
2024-04-25T00:30:19.453Z,1004.870808
2024-04-25T00:35:19.143Z,1004.852740
2024-04-25T00:40:19.110Z,1004.776008
2024-04-25T00:45:20.064Z,1004.742356
2024-04-25T00:50:19.111Z,1004.671023
2024-04-25T00:55:19.099Z,1004.669369
2024-04-25T01:00:19.118Z,1004.639152
2024-04-25T01:05:19.451Z,1004.612717
2024-04-25T01:10:19.835Z,1004.626807
2024-04-25T01:15:19.403Z,1004.592189
2024-04-25T01:20:19.278Z,1004.571940
2024-04-25T01:25:19.328Z,1004.546401
2024-04-25T01:30:19.264Z,1004.494384
2024-04-25T01:35:19.392Z,1004.495790
2024-04-25T01:40:19.167Z,1004.407276
2024-04-25T01:45:19.231Z,1004.367090
2024-04-25T01:50:19.160Z,1004.327128
2024-04-25T01:55:19.123Z,1004.312307
2024-04-25T02:00:19.428Z,1004.236979
2024-04-25T02:05:18.968Z,1004.231185
2024-04-25T02:10:19.335Z,1004.140382
2024-04-25T02:15:19.075Z,1004.120192
2024-04-25T02:20:19.160Z,1004.092966
2024-04-25T02:25:19.611Z,1004.085582
2024-04-25T02:30:19.133Z,1004.059627
2024-04-25T02:35:19.303Z,1004.002504
2024-04-25T02:40:19.244Z,1004.018719
2024-04-25T02:45:18.931Z,1004.047009
2024-04-25T02:50:21.108Z,1004.042012
2024-04-25T02:55:19.971Z,1004.077993
2024-04-25T03:00:19.378Z,1004.060144
2024-04-25T03:05:19.546Z,1004.040308
2024-04-25T03:10:19.230Z,1004.026606
2024-04-25T03:15:19.636Z,1004.033824
2024-04-25T03:20:19.070Z,1004.036532
2024-04-25T03:25:19.364Z,1004.127913
2024-04-25T03:30:19.228Z,1004.118435
2024-04-25T03:35:19.273Z,1004.129315
2024-04-25T03:40:19.289Z,1004.087686
2024-04-25T03:45:19.007Z,1004.116504
2024-04-25T03:50:20.082Z,1004.129483
2024-04-25T03:55:19.551Z,1004.116345
2024-04-25T04:00:19.879Z,1004.154001
2024-04-25T04:05:19.387Z,1004.152313
2024-04-25T04:10:19.694Z,1004.210038
2024-04-25T04:15:21.086Z,1004.251660
2024-04-25T04:20:19.403Z,1004.231837
2024-04-25T04:25:18.939Z,1004.261032
2024-04-25T04:30:19.462Z,1004.306263
2024-04-25T04:35:19.235Z,1004.286892
2024-04-25T04:40:19.608Z,1004.323020
2024-04-25T04:45:19.510Z,1004.341234
2024-04-25T04:50:19.685Z,1004.359640
2024-04-25T04:55:19.432Z,1004.365248
2024-04-25T05:00:19.162Z,1004.365433
2024-04-25T05:05:19.129Z,1004.373175
2024-04-25T05:10:20.640Z,1004.404139
2024-04-25T05:15:19.078Z,1004.429523
2024-04-25T05:20:18.874Z,1004.406450
2024-04-25T05:25:19.178Z,1004.413007
2024-04-25T05:30:19.207Z,1004.427557
2024-04-25T05:35:20.611Z,1004.427918
2024-04-25T05:40:19.108Z,1004.406642
2024-04-25T05:45:19.347Z,1004.443268
2024-04-25T05:50:19.367Z,1004.401165
2024-04-25T05:55:19.270Z,1004.467437
2024-04-25T06:00:19.216Z,1004.576287
2024-04-25T06:05:19.080Z,1004.712458
2024-04-25T06:10:19.240Z,1004.760784
2024-04-25T06:15:20.063Z,1004.771065
2024-04-25T06:20:19.813Z,1004.787695
2024-04-25T06:25:23.517Z,1004.807638
2024-04-25T06:30:18.980Z,1004.765794
2024-04-25T06:35:18.947Z,1004.789022
2024-04-25T06:40:20.192Z,1004.758561
2024-04-25T06:45:19.184Z,1004.768690
2024-04-25T06:50:19.540Z,1004.741716
2024-04-25T06:55:18.792Z,1004.773294
2024-04-25T07:00:19.257Z,1004.809269
2024-04-25T07:05:19.308Z,1004.851978
2024-04-25T07:10:19.832Z,1004.870344
2024-04-25T07:15:19.199Z,1004.883573
2024-04-25T07:20:19.415Z,1004.903761
2024-04-25T07:25:19.246Z,1004.907929
2024-04-25T07:30:18.751Z,1004.944376
2024-04-25T07:35:18.828Z,1004.932805
2024-04-25T07:40:19.644Z,1004.955194
2024-04-25T07:45:19.108Z,1005.038281
2024-04-25T07:50:19.347Z,1005.076914
2024-04-25T07:55:19.233Z,1005.038413
2024-04-25T08:00:19.078Z,1005.049697
2024-04-25T08:05:19.026Z,1005.082022
2024-04-25T08:10:18.988Z,1005.081808
2024-04-25T08:15:19.135Z,1005.100626
2024-04-25T08:20:18.954Z,1005.025307
2024-04-25T08:25:18.987Z,1005.000720
2024-04-25T08:30:19.325Z,1004.902885
2024-04-25T08:35:18.954Z,1004.818410
2024-04-25T08:40:19.011Z,1004.902637
2024-04-25T08:45:19.299Z,1004.951763
2024-04-25T08:50:19.305Z,1004.942233
2024-04-25T08:55:19.589Z,1004.879592
2024-04-25T09:00:19.362Z,1004.938503
2024-04-25T09:05:19.278Z,1004.952399
2024-04-25T09:10:19.198Z,1004.916698
2024-04-25T09:15:19.140Z,1004.843947
2024-04-25T09:20:19.131Z,1004.906764
2024-04-25T09:25:19.032Z,1005.079433
2024-04-25T09:30:19.253Z,1005.381582
2024-04-25T09:35:18.919Z,1005.440142
2024-04-25T09:40:19.285Z,1005.364788
2024-04-25T09:45:19.784Z,1005.363476
2024-04-25T09:50:18.777Z,1005.344820
2024-04-25T09:55:19.018Z,1005.232190
2024-04-25T10:00:19.148Z,1005.049875
2024-04-25T10:05:19.172Z,1004.942875
2024-04-25T10:10:19.439Z,1005.189737
2024-04-25T10:15:19.212Z,1005.269151
2024-04-25T10:20:19.268Z,1005.140273
2024-04-25T10:25:19.357Z,1004.891797
2024-04-25T10:30:25.358Z,1004.820618
2024-04-25T10:35:19.065Z,1004.802791
2024-04-25T10:40:18.959Z,1004.693729
2024-04-25T10:45:18.842Z,1004.610619
2024-04-25T10:50:19.053Z,1004.500298
2024-04-25T10:55:19.189Z,1004.453433
2024-04-25T11:00:19.379Z,1004.637827
2024-04-25T11:05:19.218Z,1004.901498
2024-04-25T11:10:19.082Z,1004.938207
2024-04-25T11:15:19.111Z,1005.108748
2024-04-25T11:20:19.479Z,1005.220049
2024-04-25T11:25:19.009Z,1005.322237
2024-04-25T11:30:19.350Z,1005.384761
2024-04-25T11:35:19.121Z,1005.354891
2024-04-25T11:40:19.002Z,1005.288251
2024-04-25T11:45:18.958Z,1005.226854
2024-04-25T11:50:19.285Z,1005.145014
2024-04-25T11:55:19.186Z,1005.048424
2024-04-25T12:00:18.974Z,1004.981858
2024-04-25T12:05:19.078Z,1004.952820
2024-04-25T12:10:19.058Z,1005.068697
2024-04-25T12:15:21.726Z,1005.120605
2024-04-25T12:20:19.160Z,1005.187561
2024-04-25T12:25:18.985Z,1005.218756
2024-04-25T12:30:19.318Z,1005.161834
2024-04-25T12:35:19.055Z,1005.130781
2024-04-25T12:40:19.427Z,1005.068320
2024-04-25T12:45:19.032Z,1005.004146
2024-04-25T12:50:21.702Z,1005.005983
2024-04-25T12:55:18.956Z,1004.898527
2024-04-25T13:00:18.850Z,1004.791517
2024-04-25T13:05:18.838Z,1004.832973
2024-04-25T13:10:19.305Z,1004.910223
2024-04-25T13:15:18.983Z,1004.934047
2024-04-25T13:20:19.430Z,1004.900945
2024-04-25T13:25:19.330Z,1005.147953
2024-04-25T13:30:19.252Z,1005.890305
2024-04-25T13:35:19.153Z,1006.286365
2024-04-25T13:40:19.301Z,1006.307543
2024-04-25T13:45:19.269Z,1006.087851
2024-04-25T13:50:19.168Z,1005.792058
2024-04-25T13:55:19.600Z,1005.606404
2024-04-25T14:00:19.297Z,1005.512247
2024-04-25T14:05:19.410Z,1005.444614
2024-04-25T14:10:20.483Z,1005.407907
2024-04-25T14:15:18.975Z,1005.356927
2024-04-25T14:20:19.563Z,1005.284976
2024-04-25T14:25:19.167Z,1005.252484
2024-04-25T14:30:19.341Z,1005.290346
2024-04-25T14:35:19.182Z,1005.301812
2024-04-25T14:40:19.084Z,1005.443312
2024-04-25T14:45:18.824Z,1005.550627
2024-04-25T14:50:19.921Z,1005.561028
2024-04-25T14:55:18.930Z,1005.541709
2024-04-25T15:00:19.122Z,1005.473471
2024-04-25T15:05:18.961Z,1005.436760
2024-04-25T15:10:19.547Z,1005.389902
2024-04-25T15:15:21.167Z,1005.409562
2024-04-25T15:20:18.942Z,1005.367166
2024-04-25T15:25:18.851Z,1005.383863
2024-04-25T15:30:18.755Z,1005.413491
2024-04-25T15:35:19.234Z,1005.498042
2024-04-25T15:40:19.146Z,1005.557831
2024-04-25T15:45:19.115Z,1005.617224
2024-04-25T15:50:19.676Z,1005.685031
2024-04-25T15:55:19.007Z,1005.870272
2024-04-25T16:00:18.831Z,1005.984121
2024-04-25T16:05:18.804Z,1006.118838
2024-04-25T16:10:18.883Z,1006.218996
2024-04-25T16:15:19.804Z,1006.271537
2024-04-25T16:20:19.114Z,1006.293499
2024-04-25T16:25:18.823Z,1006.100752
2024-04-25T16:30:19.706Z,1005.946507
2024-04-25T16:35:19.069Z,1005.829274
2024-04-25T16:40:18.946Z,1005.752470
2024-04-25T16:45:18.727Z,1005.746374
2024-04-25T16:50:18.900Z,1005.865027
2024-04-25T16:55:19.254Z,1005.976753
2024-04-25T17:00:19.271Z,1006.035724
2024-04-25T17:05:19.011Z,1006.001326
2024-04-25T17:10:19.027Z,1005.958442
2024-04-25T17:15:18.615Z,1006.012420
2024-04-25T17:20:19.718Z,1006.058459
2024-04-25T17:25:19.046Z,1006.112717
2024-04-25T17:30:19.440Z,1006.139546
2024-04-25T17:35:18.700Z,1006.136144
2024-04-25T17:40:18.751Z,1006.173000
2024-04-25T17:45:19.624Z,1006.262915
2024-04-25T17:50:18.771Z,1006.314695
2024-04-25T17:55:19.099Z,1006.340212
2024-04-25T18:00:18.902Z,1006.360929
2024-04-25T18:05:19.289Z,1006.390125
2024-04-25T18:10:19.225Z,1006.483990
2024-04-25T18:15:19.556Z,1006.523864
2024-04-25T18:20:19.652Z,1006.474215
2024-04-25T18:25:19.143Z,1006.498029
2024-04-25T18:30:19.570Z,1006.592782
2024-04-25T18:35:19.438Z,1006.627582
2024-04-25T18:40:19.400Z,1006.665707
2024-04-25T18:45:19.144Z,1006.664100
2024-04-25T18:50:18.924Z,1006.578538
2024-04-25T18:55:18.928Z,1006.586683
2024-04-25T19:00:19.367Z,1006.606054
2024-04-25T19:05:19.257Z,1006.692523
2024-04-25T19:10:19.099Z,1006.786269
2024-04-25T19:15:18.903Z,1006.902511
2024-04-25T19:20:18.923Z,1006.951353
2024-04-25T19:25:18.903Z,1006.929179
2024-04-25T19:30:20.420Z,1006.957572
2024-04-25T19:35:18.928Z,1007.029581
2024-04-25T19:40:18.868Z,1006.990005
2024-04-25T19:45:19.443Z,1007.018000
2024-04-25T19:50:19.022Z,1007.060309
2024-04-25T19:55:19.325Z,1007.104419
2024-04-25T20:00:25.777Z,1007.200207
2024-04-25T20:05:19.211Z,1007.220946
2024-04-25T20:10:18.626Z,1007.188330
2024-04-25T20:15:19.871Z,1007.224467
2024-04-25T20:20:18.734Z,1007.242968
2024-04-25T20:25:18.920Z,1007.230286
2024-04-25T20:30:21.517Z,1007.267716
2024-04-25T20:35:18.995Z,1007.264429
2024-04-25T20:40:18.721Z,1007.236681
2024-04-25T20:45:18.971Z,1007.232155
2024-04-25T20:50:19.046Z,1007.275294
2024-04-25T20:55:18.940Z,1007.291586
2024-04-25T21:00:19.020Z,1007.284555
2024-04-25T21:05:19.038Z,1007.374662
2024-04-25T21:10:19.109Z,1007.294461
2024-04-25T21:15:19.343Z,1007.314548
2024-04-25T21:20:18.996Z,1007.334491
2024-04-25T21:25:18.782Z,1007.336880
2024-04-25T21:30:18.967Z,1007.382515
2024-04-25T21:35:19.605Z,1007.369033
2024-04-25T21:40:19.180Z,1007.370863
2024-04-25T21:45:18.994Z,1007.419672
2024-04-25T21:50:18.743Z,1007.404520
2024-04-25T21:55:18.694Z,1007.399890
2024-04-25T22:00:18.787Z,1007.400172
2024-04-25T22:05:19.607Z,1007.374943
2024-04-25T22:10:18.826Z,1007.441510
2024-04-25T22:15:19.039Z,1007.459855
2024-04-25T22:20:19.086Z,1007.443206
2024-04-25T22:25:19.241Z,1007.424693
2024-04-25T22:30:18.913Z,1007.397933
2024-04-25T22:35:18.955Z,1007.415861
2024-04-25T22:40:19.079Z,1007.474194
2024-04-25T22:45:28.492Z,1007.503144
2024-04-25T22:50:19.334Z,1007.557343
2024-04-25T22:55:19.141Z,1007.587888
2024-04-25T23:00:18.918Z,1007.514989
2024-04-25T23:05:18.936Z,1007.530421
2024-04-25T23:10:18.822Z,1007.515112
2024-04-25T23:15:18.989Z,1007.507645
2024-04-25T23:20:18.927Z,1007.516678
2024-04-25T23:25:18.929Z,1007.499693
2024-04-25T23:30:19.392Z,1007.462538
2024-04-25T23:35:19.096Z,1007.432989
2024-04-25T23:40:19.195Z,1007.414850
2024-04-25T23:45:19.254Z,1007.310823
2024-04-25T23:50:18.710Z,1007.347767
2024-04-25T23:55:19.118Z,1007.320197
